createdAt,value
2018-06-28T00:00:31.069Z,99.90
2018-06-28T00:01:04.155Z,99.90
2018-06-28T00:01:37.185Z,99.90
2018-06-28T00:02:10.338Z,99.90
2018-06-28T00:02:44.131Z,99.90
2018-06-28T00:03:17.102Z,99.90
2018-06-28T00:03:50.087Z,99.90
2018-06-28T00:04:26.817Z,99.90
2018-06-28T00:05:16.567Z,99.90
2018-06-28T00:05:52.193Z,99.90
2018-06-28T00:06:25.775Z,99.90
2018-06-28T00:06:59.655Z,99.90
2018-06-28T00:07:32.777Z,99.90
2018-06-28T00:08:07.600Z,99.90
2018-06-28T00:08:47.845Z,99.90
2018-06-28T00:09:20.835Z,99.90
2018-06-28T00:09:53.905Z,99.90
2018-06-28T00:10:35.879Z,99.90
2018-06-28T00:11:10.782Z,99.90
2018-06-28T00:11:43.839Z,99.90
2018-06-28T00:12:17.465Z,99.90
2018-06-28T00:12:52.061Z,99.90
2018-06-28T00:13:27.739Z,99.90
2018-06-28T00:14:00.809Z,99.90
2018-06-28T00:14:33.810Z,99.90
2018-06-28T00:15:07.041Z,99.90
2018-06-28T00:15:40.069Z,99.90
2018-06-28T00:16:13.131Z,99.90
2018-06-28T00:16:46.213Z,99.90
2018-06-28T00:17:19.247Z,99.90
2018-06-28T00:17:52.277Z,99.90
2018-06-28T00:18:25.336Z,99.90
2018-06-28T00:18:58.377Z,99.90
2018-06-28T00:19:31.402Z,99.90
2018-06-28T00:20:06.663Z,99.90
2018-06-28T00:20:50.667Z,99.90
2018-06-28T00:21:26.473Z,99.90
2018-06-28T00:22:04.413Z,99.90
2018-06-28T00:22:38.473Z,99.90
2018-06-28T00:25:50.502Z,99.90
2018-06-28T00:26:32.264Z,99.90
2018-06-28T00:27:09.731Z,99.90
2018-06-28T00:27:53.295Z,99.90
2018-06-28T00:28:26.351Z,99.90
2018-06-28T00:28:59.383Z,99.90
2018-06-28T00:29:33.633Z,99.90
2018-06-28T00:30:07.591Z,99.90
2018-06-28T00:30:41.202Z,99.90
2018-06-28T00:31:15.195Z,99.90
2018-06-28T00:31:48.253Z,99.90
2018-06-28T00:32:21.259Z,99.90
2018-06-28T00:32:54.842Z,99.90
2018-06-28T00:33:28.861Z,99.90
2018-06-28T00:34:01.909Z,99.90
2018-06-28T00:34:34.923Z,99.90
2018-06-28T00:35:07.971Z,99.90
2018-06-28T00:35:40.973Z,99.90
2018-06-28T00:36:13.937Z,99.90
2018-06-28T00:36:46.975Z,99.90
2018-06-28T00:37:19.981Z,99.90
2018-06-28T00:37:52.991Z,99.90
2018-06-28T00:38:26.784Z,99.90
2018-06-28T00:38:59.831Z,99.90
2018-06-28T00:39:32.843Z,99.90
2018-06-28T00:40:05.841Z,99.90
2018-06-28T00:40:38.855Z,99.90
2018-06-28T00:41:11.855Z,99.90
2018-06-28T00:41:45.131Z,99.90
2018-06-28T00:42:18.409Z,99.90
2018-06-28T00:42:51.491Z,99.90
2018-06-28T00:43:24.491Z,99.90
2018-06-28T00:43:57.495Z,99.90
2018-06-28T00:44:30.539Z,99.90
2018-06-28T00:45:03.619Z,99.90
2018-06-28T00:45:36.619Z,99.90
2018-06-28T00:46:09.739Z,99.90
2018-06-28T00:46:42.767Z,99.90
2018-06-28T00:47:15.755Z,99.90
2018-06-28T00:47:48.779Z,99.90
2018-06-28T00:48:21.789Z,99.90
2018-06-28T00:48:57.580Z,99.90
2018-06-28T00:49:30.629Z,99.90
2018-06-28T00:50:03.811Z,99.90
2018-06-28T00:50:36.841Z,99.90
2018-06-28T00:51:11.311Z,99.90
2018-06-28T00:51:45.221Z,99.90
2018-06-28T00:52:18.269Z,99.90
2018-06-28T00:52:52.029Z,99.90
2018-06-28T00:53:25.697Z,99.90
2018-06-28T00:53:58.701Z,99.90
2018-06-28T00:54:31.703Z,99.90
2018-06-28T00:55:05.636Z,99.90
2018-06-28T00:55:41.880Z,99.90
2018-06-28T00:56:15.475Z,99.90
2018-06-28T00:56:52.469Z,99.90
2018-06-28T00:57:31.451Z,99.90
2018-06-28T00:58:09.677Z,99.90
2018-06-28T00:58:48.835Z,99.90
2018-06-28T00:59:22.861Z,99.90
2018-06-28T01:00:02.565Z,99.90
2018-06-28T01:00:35.612Z,99.90
2018-06-28T01:01:08.637Z,99.90
2018-06-28T01:01:41.734Z,99.90
2018-06-28T01:02:16.838Z,99.90
2018-06-28T01:02:51.035Z,99.90
2018-06-28T01:03:25.262Z,99.90
2018-06-28T01:04:53.723Z,99.90
2018-06-28T01:05:31.094Z,99.90
2018-06-28T01:06:04.141Z,99.90
2018-06-28T01:06:37.208Z,99.90
2018-06-28T01:07:10.313Z,99.90
2018-06-28T01:07:43.321Z,99.90
2018-06-28T01:08:16.332Z,99.90
2018-06-28T01:08:49.421Z,99.90
2018-06-28T01:09:22.490Z,99.90
2018-06-28T01:09:55.507Z,99.90
2018-06-28T01:10:28.535Z,99.90
2018-06-28T01:11:01.603Z,99.90
2018-06-28T01:11:34.637Z,99.90
2018-06-28T01:12:07.760Z,99.90
2018-06-28T01:12:40.782Z,99.90
2018-06-28T01:13:14.498Z,99.90
2018-06-28T01:13:47.515Z,99.90
2018-06-28T01:14:21.010Z,99.90
2018-06-28T01:15:05.017Z,99.90
2018-06-28T01:15:48.731Z,99.90
2018-06-28T01:16:25.968Z,99.90
2018-06-28T01:17:14.038Z,99.90
2018-06-28T01:27:40.121Z,99.90
2018-06-28T01:28:59.419Z,99.90
2018-06-28T01:29:32.431Z,99.90
2018-06-28T01:30:06.736Z,99.90
2018-06-28T01:30:39.823Z,99.90
2018-06-28T01:31:12.941Z,99.90
2018-06-28T01:31:46.803Z,99.90
2018-06-28T01:32:22.770Z,99.90
2018-06-28T01:32:55.804Z,99.90
2018-06-28T01:33:29.555Z,99.90
2018-06-28T01:34:03.171Z,99.90
2018-06-28T01:34:36.989Z,99.90
2018-06-28T01:35:10.039Z,99.90
2018-06-28T01:35:43.023Z,99.90
2018-06-28T01:36:16.040Z,99.90
2018-06-28T01:36:49.064Z,99.90
2018-06-28T01:37:22.095Z,99.90
2018-06-28T01:37:55.099Z,99.90
2018-06-28T01:38:28.153Z,99.90
2018-06-28T01:39:01.909Z,99.90
2018-06-28T01:39:34.977Z,99.90
2018-06-28T01:40:08.070Z,99.90
2018-06-28T01:40:46.455Z,99.90
2018-06-28T01:41:20.127Z,99.90
2018-06-28T01:42:21.403Z,99.90
2018-06-28T01:43:11.663Z,99.90
2018-06-28T01:43:46.291Z,99.90
2018-06-28T01:44:20.667Z,99.90
2018-06-28T01:57:58.804Z,99.90
2018-06-28T01:58:31.890Z,99.90
2018-06-28T01:59:04.916Z,99.90
2018-06-28T01:59:37.949Z,99.90
2018-06-28T02:00:10.979Z,99.90
2018-06-28T02:00:44.099Z,99.90
2018-06-28T02:01:17.141Z,99.90
2018-06-28T02:01:50.535Z,99.90
2018-06-28T02:02:24.323Z,99.90
2018-06-28T02:02:57.383Z,99.90
2018-06-28T02:03:30.754Z,99.90
2018-06-28T02:04:03.919Z,99.90
2018-06-28T02:04:36.908Z,99.90
2018-06-28T02:05:09.957Z,99.90
2018-06-28T02:05:43.771Z,99.90
2018-06-28T02:06:22.767Z,99.90
2018-06-28T02:06:55.787Z,99.90
2018-06-28T02:07:29.954Z,99.90
2018-06-28T02:08:03.011Z,99.90
2018-06-28T02:08:36.018Z,99.90
2018-06-28T02:09:09.974Z,99.90
2018-06-28T02:09:42.995Z,99.90
2018-06-28T02:10:16.027Z,99.90
2018-06-28T02:10:49.105Z,99.90
2018-06-28T02:11:23.347Z,99.90
2018-06-28T02:11:56.386Z,99.90
2018-06-28T02:12:29.456Z,99.90
2018-06-28T02:13:03.157Z,99.90
2018-06-28T02:13:36.161Z,99.90
2018-06-28T02:14:09.157Z,99.90
2018-06-28T02:14:42.472Z,99.90
2018-06-28T02:15:15.874Z,99.90
2018-06-28T02:15:49.653Z,99.90
2018-06-28T02:16:22.716Z,99.90
2018-06-28T02:16:59.424Z,99.90
2018-06-28T02:17:32.710Z,99.90
2018-06-28T02:18:06.750Z,99.90
2018-06-28T02:18:39.770Z,99.90
2018-06-28T02:19:15.572Z,99.90
2018-06-28T02:19:52.638Z,99.90
2018-06-28T02:20:35.171Z,99.90
2018-06-28T02:21:10.975Z,99.90
2018-06-28T02:21:44.576Z,99.90
2018-06-28T02:22:17.582Z,99.90
2018-06-28T02:22:52.059Z,99.90
2018-06-28T02:23:34.108Z,99.90
2018-06-28T02:24:15.623Z,99.90
2018-06-28T02:24:48.666Z,99.90
2018-06-28T02:25:21.653Z,99.90
2018-06-28T02:25:55.172Z,99.90
2018-06-28T02:26:28.146Z,99.90
2018-06-28T02:27:01.100Z,99.90
2018-06-28T02:27:34.124Z,99.90
2018-06-28T02:28:07.160Z,99.90
2018-06-28T02:28:41.333Z,99.90
2018-06-28T02:29:14.686Z,99.90
2018-06-28T02:29:47.732Z,99.90
2018-06-28T02:30:20.738Z,99.90
2018-06-28T02:30:53.747Z,99.90
2018-06-28T02:31:26.782Z,99.90
2018-06-28T02:31:59.783Z,99.90
2018-06-28T02:32:32.779Z,99.90
2018-06-28T02:33:05.807Z,99.90
2018-06-28T02:33:38.891Z,99.90
2018-06-28T02:34:11.887Z,99.90
2018-06-28T02:34:49.096Z,99.90
2018-06-28T02:35:37.463Z,99.90
2018-06-28T02:36:20.002Z,99.90
2018-06-28T02:36:54.014Z,99.90
2018-06-28T02:37:29.548Z,99.90
2018-06-28T02:38:08.051Z,99.90
2018-06-28T02:38:46.582Z,99.90
2018-06-28T02:39:21.727Z,99.90
2018-06-28T02:39:55.719Z,99.90
2018-06-28T02:40:28.805Z,99.90
2018-06-28T02:41:01.833Z,99.90
2018-06-28T02:41:34.861Z,99.90
2018-06-28T02:42:08.221Z,99.90
2018-06-28T02:42:41.253Z,99.90
2018-06-28T02:43:14.275Z,99.90
2018-06-28T02:43:47.287Z,99.90
2018-06-28T02:44:20.981Z,99.90
2018-06-28T02:44:54.133Z,99.90
2018-06-28T02:45:27.498Z,99.90
2018-06-28T02:46:00.523Z,99.90
2018-06-28T02:46:33.558Z,99.90
2018-06-28T02:47:06.622Z,99.90
2018-06-28T02:47:39.669Z,99.90
2018-06-28T02:48:12.745Z,99.90
2018-06-28T02:48:45.723Z,99.90
2018-06-28T02:49:18.723Z,99.90
2018-06-28T02:49:51.753Z,99.90
2018-06-28T02:50:28.310Z,99.90
2018-06-28T02:51:11.339Z,99.90
2018-06-28T02:51:49.950Z,99.90
2018-06-28T02:52:27.327Z,99.90
2018-06-28T02:53:00.327Z,99.90
2018-06-28T02:53:34.563Z,99.90
2018-06-28T02:54:08.748Z,99.90
2018-06-28T02:54:41.765Z,99.90
2018-06-28T02:55:14.795Z,99.90
2018-06-28T02:55:47.783Z,99.90
2018-06-28T02:56:20.833Z,99.90
2018-06-28T02:56:53.865Z,99.90
2018-06-28T02:57:27.109Z,99.90
2018-06-28T02:58:00.727Z,99.90
2018-06-28T02:58:35.237Z,99.90
2018-06-28T02:59:08.935Z,99.90
2018-06-28T02:59:46.848Z,99.90
2018-06-28T03:00:19.965Z,99.90
2018-06-28T03:00:52.965Z,99.90
2018-06-28T03:01:25.994Z,99.90
2018-06-28T03:01:59.019Z,99.90
2018-06-28T03:02:35.420Z,99.90
2018-06-28T03:03:14.823Z,99.90
2018-06-28T03:04:01.695Z,99.90
2018-06-28T03:04:41.411Z,99.90
2018-06-28T03:05:14.743Z,99.90
2018-06-28T03:05:47.779Z,99.90
2018-06-28T03:06:23.047Z,99.90
2018-06-28T03:07:00.125Z,99.90
2018-06-28T03:07:34.141Z,99.90
2018-06-28T03:08:07.170Z,99.90
2018-06-28T03:08:40.165Z,99.90
2018-06-28T03:09:13.189Z,99.90
2018-06-28T03:09:46.955Z,99.90
2018-06-28T03:10:19.995Z,99.90
2018-06-28T03:10:52.989Z,99.90
2018-06-28T03:11:26.009Z,99.90
2018-06-28T03:11:59.061Z,99.90
2018-06-28T03:12:32.059Z,99.90
2018-06-28T03:13:05.115Z,99.90
2018-06-28T03:13:38.732Z,99.90
2018-06-28T03:14:11.737Z,99.90
2018-06-28T03:14:44.771Z,99.90
2018-06-28T03:15:17.811Z,99.90
2018-06-28T03:15:50.807Z,99.90
2018-06-28T03:16:23.859Z,99.90
2018-06-28T03:16:56.951Z,99.90
2018-06-28T03:17:34.503Z,99.90
2018-06-28T03:18:13.181Z,99.90
2018-06-28T03:18:50.785Z,99.90
2018-06-28T03:19:24.331Z,99.90
2018-06-28T03:19:58.173Z,99.90
2018-06-28T03:20:32.047Z,99.90
2018-06-28T03:21:06.581Z,99.90
2018-06-28T03:21:47.389Z,99.90
2018-06-28T03:22:20.971Z,99.90
2018-06-28T03:22:54.011Z,99.90
2018-06-28T03:23:26.991Z,99.90
2018-06-28T03:24:00.031Z,99.90
2018-06-28T03:24:33.011Z,99.90
2018-06-28T03:25:05.983Z,99.90
2018-06-28T03:25:39.783Z,99.90
2018-06-28T03:26:12.817Z,99.90
2018-06-28T03:26:46.047Z,99.90
2018-06-28T03:27:19.087Z,99.90
2018-06-28T03:27:52.581Z,99.90
2018-06-28T03:28:25.621Z,99.90
2018-06-28T03:28:58.613Z,99.90
2018-06-28T03:29:31.583Z,99.90
2018-06-28T03:30:04.949Z,99.90
2018-06-28T03:30:37.942Z,99.90
2018-06-28T03:31:10.937Z,99.90
2018-06-28T03:31:44.617Z,99.90
2018-06-28T03:32:19.255Z,99.90
2018-06-28T03:32:52.299Z,99.90
2018-06-28T03:33:25.313Z,99.90
2018-06-28T03:33:58.977Z,99.90
2018-06-28T03:34:32.009Z,99.90
2018-06-28T03:35:05.131Z,99.90
2018-06-28T03:35:38.105Z,99.90
2018-06-28T03:36:11.123Z,99.90
2018-06-28T03:36:44.125Z,99.90
2018-06-28T03:37:17.193Z,99.90
2018-06-28T03:37:50.306Z,99.90
2018-06-28T03:38:23.220Z,99.90
2018-06-28T03:38:56.207Z,99.90
2018-06-28T03:39:29.214Z,99.90
2018-06-28T03:40:02.283Z,99.90
2018-06-28T03:40:35.308Z,99.90
2018-06-28T03:41:08.345Z,99.90
2018-06-28T03:41:41.841Z,99.90
2018-06-28T03:42:14.835Z,99.90
2018-06-28T03:42:47.803Z,99.90
2018-06-28T03:43:20.835Z,99.90
2018-06-28T03:43:53.856Z,99.90
2018-06-28T03:44:26.855Z,99.90
2018-06-28T03:44:59.857Z,99.90
2018-06-28T03:45:32.826Z,99.90
2018-06-28T03:46:05.835Z,99.90
2018-06-28T03:46:38.869Z,99.90
2018-06-28T03:47:13.443Z,99.90
2018-06-28T03:47:46.433Z,99.90
2018-06-28T03:48:19.435Z,99.90
2018-06-28T03:48:52.835Z,99.90
2018-06-28T03:49:25.831Z,99.90
2018-06-28T03:49:58.819Z,99.90
2018-06-28T03:50:32.477Z,99.90
2018-06-28T03:51:05.751Z,99.90
2018-06-28T03:51:38.811Z,99.90
2018-06-28T03:52:12.626Z,99.90
2018-06-28T03:52:45.651Z,99.90
2018-06-28T03:53:19.285Z,99.90
2018-06-28T03:53:52.291Z,99.90
2018-06-28T03:54:25.338Z,99.90
2018-06-28T03:54:58.409Z,99.90
2018-06-28T03:55:32.395Z,99.90
2018-06-28T03:56:05.463Z,99.90
2018-06-28T03:56:38.567Z,99.90
2018-06-28T03:57:11.589Z,99.90
2018-06-28T03:57:45.463Z,99.90
2018-06-28T03:58:18.461Z,99.90
2018-06-28T03:58:51.437Z,99.90
2018-06-28T03:59:25.105Z,99.90
2018-06-28T03:59:58.417Z,99.90
2018-06-28T04:00:31.405Z,99.90
2018-06-28T04:01:04.606Z,99.90
2018-06-28T04:01:38.151Z,99.90
2018-06-28T04:02:11.245Z,99.90
2018-06-28T04:02:45.101Z,99.90
2018-06-28T04:03:18.132Z,99.90
2018-06-28T04:03:51.181Z,99.90
2018-06-28T04:04:24.281Z,99.90
2018-06-28T04:04:57.255Z,99.90
2018-06-28T04:05:30.234Z,99.90
2018-06-28T04:06:03.267Z,99.90
2018-06-28T04:06:36.395Z,99.90
2018-06-28T04:07:09.346Z,99.90
2018-06-28T04:07:42.394Z,99.90
2018-06-28T04:08:15.435Z,99.90
2018-06-28T04:08:48.455Z,99.90
2018-06-28T04:09:21.494Z,99.90
2018-06-28T04:09:54.486Z,99.90
2018-06-28T04:10:27.485Z,99.90
2018-06-28T04:11:00.603Z,99.90
2018-06-28T04:11:33.667Z,99.90
2018-06-28T04:12:06.703Z,99.90
2018-06-28T04:12:39.720Z,99.90
2018-06-28T04:13:14.181Z,99.90
2018-06-28T04:13:47.212Z,99.90
2018-06-28T04:14:20.278Z,99.90
2018-06-28T04:14:53.926Z,99.90
2018-06-28T04:15:28.341Z,99.90
2018-06-28T04:16:01.395Z,99.90
2018-06-28T04:16:34.782Z,99.90
2018-06-28T04:17:07.731Z,99.90
2018-06-28T04:17:41.439Z,99.90
2018-06-28T04:18:14.455Z,99.90
2018-06-28T04:18:47.484Z,99.90
2018-06-28T04:19:20.511Z,99.90
2018-06-28T04:19:53.495Z,99.90
2018-06-28T04:20:26.531Z,99.90
2018-06-28T04:20:59.565Z,99.90
2018-06-28T04:21:33.589Z,99.90
2018-06-28T04:22:08.159Z,99.90
2018-06-28T04:22:41.739Z,99.90
2018-06-28T04:23:14.767Z,99.90
2018-06-28T04:23:47.821Z,99.90
2018-06-28T04:24:20.830Z,99.90
2018-06-28T04:24:53.811Z,99.90
2018-06-28T04:25:26.803Z,99.90
2018-06-28T04:26:00.258Z,99.90
2018-06-28T04:26:33.795Z,99.90
2018-06-28T04:27:06.791Z,99.90
2018-06-28T04:27:39.855Z,99.90
2018-06-28T04:28:12.869Z,99.90
2018-06-28T04:28:45.903Z,99.90
2018-06-28T04:29:18.904Z,99.90
2018-06-28T04:29:52.303Z,99.90
2018-06-28T04:30:25.351Z,99.90
2018-06-28T04:30:58.349Z,99.90
2018-06-28T04:31:31.355Z,99.90
2018-06-28T04:32:04.921Z,99.90
2018-06-28T04:32:37.931Z,99.90
2018-06-28T04:33:10.896Z,99.90
2018-06-28T04:33:43.921Z,99.90
2018-06-28T04:34:16.908Z,99.90
2018-06-28T04:34:50.807Z,99.90
2018-06-28T04:35:23.808Z,99.90
2018-06-28T04:35:56.843Z,99.90
2018-06-28T04:36:29.835Z,99.90
2018-06-28T04:37:02.823Z,99.90
2018-06-28T04:37:35.862Z,99.90
2018-06-28T04:38:08.863Z,99.90
2018-06-28T04:38:41.856Z,99.90
2018-06-28T04:39:14.910Z,99.90
2018-06-28T04:39:47.913Z,99.90
2018-06-28T04:40:20.910Z,99.90
2018-06-28T04:40:53.955Z,99.90
2018-06-28T04:41:26.941Z,99.90
2018-06-28T04:41:59.932Z,99.90
2018-06-28T04:42:32.947Z,99.90
2018-06-28T04:43:05.946Z,99.90
2018-06-28T04:43:38.955Z,99.90
2018-06-28T04:44:12.977Z,99.90
2018-06-28T04:44:45.999Z,99.90
2018-06-28T04:45:19.040Z,99.90
2018-06-28T04:45:52.145Z,99.90
2018-06-28T04:46:25.121Z,99.90
2018-06-28T04:46:58.107Z,99.90
2018-06-28T04:47:31.119Z,99.90
2018-06-28T04:48:04.553Z,99.90
2018-06-28T04:48:37.567Z,99.90
2018-06-28T04:49:10.573Z,99.90
2018-06-28T04:49:43.583Z,99.90
2018-06-28T04:50:21.583Z,99.90
2018-06-28T04:50:54.545Z,99.90
2018-06-28T04:51:27.514Z,99.90
2018-06-28T04:52:00.507Z,99.90
2018-06-28T04:52:33.575Z,99.90
2018-06-28T04:53:06.634Z,99.90
2018-06-28T04:53:39.661Z,99.90
2018-06-28T04:54:12.666Z,99.90
2018-06-28T04:54:45.649Z,99.90
2018-06-28T04:55:19.385Z,99.90
2018-06-28T04:55:53.246Z,99.90
2018-06-28T04:56:26.317Z,99.90
2018-06-28T04:56:59.350Z,99.90
2018-06-28T04:57:32.364Z,99.90
2018-06-28T04:58:06.118Z,99.90
2018-06-28T04:58:39.154Z,99.90
2018-06-28T04:59:12.138Z,99.90
2018-06-28T04:59:45.108Z,99.90
2018-06-28T05:00:18.209Z,99.90
2018-06-28T05:00:51.189Z,99.90
2018-06-28T05:01:24.397Z,99.90
2018-06-28T05:01:57.245Z,99.90
2018-06-28T05:02:30.269Z,99.90
2018-06-28T05:03:03.851Z,99.90
2018-06-28T05:03:36.894Z,99.90
2018-06-28T05:04:09.905Z,99.90
2018-06-28T05:04:42.924Z,99.90
2018-06-28T05:05:15.971Z,99.90
2018-06-28T05:05:48.981Z,99.90
2018-06-28T05:06:21.976Z,99.90
2018-06-28T05:06:55.800Z,99.90
2018-06-28T05:07:28.766Z,99.90
2018-06-28T05:08:01.787Z,99.90
2018-06-28T05:08:34.841Z,99.90
2018-06-28T05:09:08.397Z,98.80
2018-06-28T05:09:41.442Z,98.20
2018-06-28T05:10:14.558Z,94.20
2018-06-28T05:10:47.590Z,94.60
2018-06-28T05:11:20.610Z,95.30
2018-06-28T05:11:53.617Z,96.60
2018-06-28T05:12:26.644Z,96.70
2018-06-28T05:12:59.662Z,97.30
2018-06-28T05:13:32.670Z,91.30
2018-06-28T05:23:50.732Z,88.70
2018-06-28T05:24:23.747Z,72.50
2018-06-28T05:24:56.751Z,72.90
2018-06-28T05:25:29.802Z,69.90
2018-06-28T05:26:02.872Z,68.50
2018-06-28T05:26:35.914Z,70.20
2018-06-28T05:27:08.940Z,71.00
2018-06-28T05:27:41.904Z,69.20
2018-06-28T05:28:14.906Z,71.30
2018-06-28T05:28:47.904Z,68.10
2018-06-28T05:29:20.926Z,67.40
2018-06-28T05:29:54.640Z,68.00
2018-06-28T05:30:27.647Z,67.50
2018-06-28T05:31:00.625Z,66.40
2018-06-28T05:31:33.630Z,67.80
2018-06-28T05:32:06.653Z,67.40
2018-06-28T05:32:39.646Z,60.00
2018-06-28T05:33:12.693Z,58.20
2018-06-28T05:33:45.700Z,59.60
2018-06-28T05:34:18.704Z,59.80
2018-06-28T05:34:51.716Z,59.60
2018-06-28T05:35:24.764Z,55.60
2018-06-28T05:35:58.079Z,55.10
2018-06-28T05:36:31.092Z,51.20
2018-06-28T05:39:45.390Z,54.80
2018-06-28T05:40:18.406Z,52.70
2018-06-28T05:40:51.444Z,52.30
2018-06-28T05:41:24.496Z,47.30
2018-06-28T05:41:57.510Z,46.30
2018-06-28T05:42:30.522Z,46.70
2018-06-28T05:43:03.526Z,44.40
2018-06-28T05:43:36.500Z,43.80
2018-06-28T05:44:09.556Z,43.70
2018-06-28T05:44:42.594Z,42.00
2018-06-28T05:45:15.604Z,42.20
2018-06-28T05:45:48.640Z,41.10
2018-06-28T05:46:21.674Z,37.70
2018-06-28T05:46:54.668Z,38.90
2018-06-28T05:47:27.702Z,39.10
2018-06-28T05:48:00.748Z,39.80
2018-06-28T05:48:33.774Z,41.80
2018-06-28T05:49:06.795Z,41.60
2018-06-28T05:49:39.810Z,37.80
2018-06-28T05:50:12.824Z,35.20
2018-06-28T05:50:45.844Z,34.20
2018-06-28T05:51:19.350Z,35.50
2018-06-28T05:51:52.412Z,33.40
2018-06-28T05:52:25.786Z,33.60
2018-06-28T05:52:58.814Z,33.20
2018-06-28T05:53:31.824Z,35.80
2018-06-28T05:54:04.923Z,34.60
2018-06-28T05:54:37.910Z,33.90
2018-06-28T05:55:10.947Z,34.10
2018-06-28T05:55:43.958Z,35.00
2018-06-28T05:56:16.986Z,35.50
2018-06-28T05:56:50.008Z,33.80
2018-06-28T05:57:23.034Z,32.20
2018-06-28T05:57:56.115Z,34.60
2018-06-28T05:58:29.135Z,32.50
2018-06-28T05:59:02.146Z,30.60
2018-06-28T05:59:35.132Z,33.30
2018-06-28T06:00:08.224Z,34.90
2018-06-28T06:00:41.242Z,33.50
2018-06-28T06:01:14.291Z,32.30
2018-06-28T06:01:47.289Z,30.50
2018-06-28T06:02:20.299Z,31.60
2018-06-28T06:02:53.330Z,31.60
2018-06-28T06:03:26.329Z,29.80
2018-06-28T06:03:59.363Z,30.80
2018-06-28T06:04:32.379Z,31.20
2018-06-28T06:05:05.538Z,27.10
2018-06-28T06:05:38.571Z,25.30
2018-06-28T06:06:12.197Z,26.10
2018-06-28T06:06:45.246Z,26.10
2018-06-28T06:07:18.267Z,22.00
2018-06-28T06:07:51.295Z,19.70
2018-06-28T06:08:24.287Z,19.70
2018-06-28T06:08:57.320Z,18.90
2018-06-28T06:09:31.653Z,16.30
2018-06-28T06:10:04.759Z,13.60
2018-06-28T06:10:37.777Z,13.00
2018-06-28T06:11:10.776Z,15.60
2018-06-28T06:11:43.862Z,11.00
2018-06-28T06:12:16.837Z,14.00
2018-06-28T06:12:49.857Z,12.90
2018-06-28T06:13:22.867Z,9.50
2018-06-28T06:13:55.887Z,11.30
2018-06-28T06:14:28.885Z,10.40
2018-06-28T06:15:01.886Z,6.40
2018-06-28T06:15:34.919Z,5.00
2018-06-28T06:16:07.904Z,5.00
2018-06-28T06:16:40.920Z,5.00
2018-06-28T06:17:13.977Z,6.60
2018-06-28T06:17:47.742Z,5.00
2018-06-28T06:18:20.709Z,6.70
2018-06-28T06:18:53.758Z,6.10
2018-06-28T06:19:26.919Z,7.20
2018-06-28T06:19:59.919Z,5.00
2018-06-28T06:20:32.946Z,5.00
2018-06-28T06:21:06.453Z,5.00
2018-06-28T06:21:39.447Z,5.00
2018-06-28T06:22:16.179Z,5.00
2018-06-28T06:22:49.177Z,5.00
2018-06-28T06:23:22.216Z,5.00
2018-06-28T06:23:55.263Z,5.00
2018-06-28T06:24:28.519Z,5.00
2018-06-28T06:25:02.477Z,5.00
2018-06-28T06:25:35.463Z,5.00
2018-06-28T06:26:08.451Z,5.00
2018-06-28T06:26:42.289Z,5.00
2018-06-28T06:27:15.295Z,5.00
2018-06-28T06:27:48.313Z,5.00
2018-06-28T06:28:21.321Z,5.00
2018-06-28T06:28:54.315Z,5.00
2018-06-28T06:29:27.412Z,5.00
2018-06-28T06:30:00.398Z,5.00
2018-06-28T06:30:33.455Z,5.00
2018-06-28T06:31:06.500Z,5.00
2018-06-28T06:31:39.619Z,5.00
2018-06-28T06:32:12.635Z,5.00
2018-06-28T06:32:45.628Z,5.00
2018-06-28T06:33:18.649Z,5.00
2018-06-28T06:33:51.735Z,5.00
2018-06-28T06:34:24.743Z,5.00
2018-06-28T06:34:58.069Z,5.00
2018-06-28T06:35:31.761Z,5.00
2018-06-28T06:36:05.840Z,5.00
2018-06-28T06:36:38.848Z,5.00
2018-06-28T06:37:58.682Z,5.00
2018-06-28T06:38:31.755Z,5.00
2018-06-28T06:39:08.476Z,5.00
2018-06-28T06:39:41.472Z,5.00
2018-06-28T06:40:15.512Z,5.00
2018-06-28T06:40:48.554Z,5.00
2018-06-28T06:41:22.669Z,5.00
2018-06-28T06:41:56.482Z,5.00
2018-06-28T06:42:29.514Z,5.00
2018-06-28T06:43:02.561Z,5.00
2018-06-28T06:43:35.566Z,5.00
2018-06-28T06:44:08.606Z,5.00
2018-06-28T06:44:41.675Z,5.00
2018-06-28T06:45:15.472Z,5.00
2018-06-28T06:45:49.514Z,5.00
2018-06-28T06:46:22.543Z,5.00
2018-06-28T06:46:55.563Z,5.00
2018-06-28T06:47:28.574Z,5.00
2018-06-28T06:48:01.584Z,5.00
2018-06-28T06:48:34.627Z,5.00
2018-06-28T06:49:07.664Z,5.00
2018-06-28T06:49:40.659Z,5.00
2018-06-28T06:50:13.662Z,5.00
2018-06-28T06:50:46.710Z,5.00
2018-06-28T06:51:19.760Z,5.00
2018-06-28T06:51:53.007Z,5.00
2018-06-28T06:52:26.102Z,5.00
2018-06-28T06:52:59.145Z,5.00
2018-06-28T06:53:32.876Z,5.00
2018-06-28T06:54:05.919Z,5.00
2018-06-28T06:54:38.937Z,5.00
2018-06-28T06:55:12.008Z,5.00
2018-06-28T06:55:45.050Z,5.00
2018-06-28T06:56:18.086Z,5.00
2018-06-28T06:56:51.254Z,5.00
2018-06-28T06:57:24.281Z,5.00
2018-06-28T06:57:57.288Z,5.00
2018-06-28T06:58:30.310Z,5.00
2018-06-28T06:59:03.358Z,5.00
2018-06-28T06:59:36.719Z,5.00
2018-06-28T07:00:09.698Z,5.00
2018-06-28T07:00:42.682Z,5.00
2018-06-28T07:01:15.688Z,5.00
2018-06-28T07:01:48.734Z,5.00
2018-06-28T07:02:21.783Z,5.00
2018-06-28T07:02:54.864Z,5.00
2018-06-28T07:03:27.914Z,5.00
2018-06-28T07:04:03.294Z,5.00
2018-06-28T07:04:38.544Z,5.00
2018-06-28T07:05:12.520Z,5.00
2018-06-28T07:05:45.511Z,5.00
2018-06-28T07:06:18.496Z,5.00
2018-06-28T07:06:52.324Z,5.00
2018-06-28T07:07:26.310Z,5.00
2018-06-28T07:08:00.165Z,5.00
2018-06-28T07:08:34.306Z,5.00
2018-06-28T07:09:11.816Z,5.00
2018-06-28T07:09:44.957Z,5.00
2018-06-28T07:10:19.062Z,5.00
2018-06-28T07:10:52.343Z,5.00
2018-06-28T07:11:25.334Z,5.00
2018-06-28T07:11:58.374Z,5.00
2018-06-28T07:12:31.689Z,5.00
2018-06-28T07:13:04.743Z,5.00
2018-06-28T07:13:38.225Z,5.00
2018-06-28T07:14:11.350Z,5.00
2018-06-28T07:14:44.516Z,5.00
2018-06-28T07:15:17.540Z,5.00
2018-06-28T07:15:57.136Z,5.00
2018-06-28T07:16:32.513Z,5.00
2018-06-28T07:17:08.649Z,5.00
2018-06-28T07:17:41.829Z,5.00
2018-06-28T07:18:14.739Z,5.00
2018-06-28T07:18:47.736Z,5.00
2018-06-28T07:19:20.757Z,5.00
2018-06-28T07:19:53.806Z,5.00
2018-06-28T07:20:26.855Z,5.00
2018-06-28T07:20:59.856Z,5.00
2018-06-28T07:21:33.645Z,5.00
2018-06-28T07:22:07.448Z,5.00
2018-06-28T07:22:40.741Z,5.00
2018-06-28T07:23:13.758Z,5.00
2018-06-28T07:23:46.783Z,5.00
2018-06-28T07:24:19.773Z,5.00
2018-06-28T07:24:52.881Z,5.00
2018-06-28T07:25:25.838Z,5.00
2018-06-28T07:25:58.848Z,5.00
2018-06-28T07:26:32.632Z,5.00
2018-06-28T07:27:05.667Z,5.00
2018-06-28T07:27:40.938Z,5.00
2018-06-28T07:28:14.015Z,5.00
2018-06-28T07:28:48.023Z,5.00
2018-06-28T07:29:21.123Z,5.00
2018-06-28T07:29:54.716Z,5.00
2018-06-28T07:30:28.238Z,5.00
2018-06-28T07:31:02.015Z,5.00
2018-06-28T07:31:35.122Z,5.00
2018-06-28T07:32:08.228Z,5.00
2018-06-28T07:32:41.248Z,5.00
2018-06-28T07:33:15.252Z,5.00
2018-06-28T07:33:48.274Z,5.00
2018-06-28T07:34:21.290Z,5.00
2018-06-28T07:34:54.318Z,5.00
2018-06-28T07:35:27.424Z,5.00
2018-06-28T07:36:00.422Z,5.00
2018-06-28T07:36:33.793Z,5.00
2018-06-28T07:37:08.042Z,5.00
2018-06-28T07:37:42.285Z,5.00
2018-06-28T07:38:16.536Z,5.00
2018-06-28T07:38:49.602Z,5.00
2018-06-28T07:39:23.677Z,5.00
2018-06-28T07:39:57.859Z,5.00
2018-06-28T07:40:30.842Z,5.00
2018-06-28T07:41:03.869Z,5.00
2018-06-28T07:41:37.361Z,5.00
2018-06-28T07:42:10.386Z,5.00
2018-06-28T07:42:44.333Z,5.00
2018-06-28T07:43:17.391Z,5.00
2018-06-28T07:43:50.375Z,5.00
2018-06-28T07:44:23.413Z,5.00
2018-06-28T07:44:56.402Z,5.00
2018-06-28T07:45:29.517Z,5.00
2018-06-28T07:46:02.529Z,5.00
2018-06-28T07:46:36.985Z,5.00
2018-06-28T07:47:10.019Z,5.00
2018-06-28T07:47:43.031Z,5.00
2018-06-28T07:48:16.047Z,5.00
2018-06-28T07:48:49.807Z,5.00
2018-06-28T07:49:23.467Z,5.00
2018-06-28T07:49:56.456Z,5.00
2018-06-28T07:50:29.489Z,5.00
2018-06-28T07:51:04.375Z,5.00
2018-06-28T07:51:37.882Z,5.00
2018-06-28T07:52:13.231Z,5.00
2018-06-28T07:52:47.135Z,5.00
2018-06-28T07:53:20.145Z,5.00
2018-06-28T07:53:53.233Z,5.00
2018-06-28T07:54:26.375Z,5.00
2018-06-28T07:54:59.900Z,5.00
2018-06-28T07:55:32.963Z,5.00
2018-06-28T07:56:06.033Z,5.00
2018-06-28T07:56:39.046Z,5.00
2018-06-28T07:57:13.067Z,5.00
2018-06-28T07:57:46.121Z,5.00
2018-06-28T07:58:19.154Z,5.00
2018-06-28T07:58:52.301Z,5.00